sensor_id;sensor_type;location;lat;lon;timestamp;P1;durP1;ratioP1;P2;durP2;ratioP2
37777;SDS011;23615;51.506;7.678;2023-03-19T00:01:04;2.07;;;1.47;;
37777;SDS011;23615;51.506;7.678;2023-03-19T00:03:31;1.67;;;1.20;;
37777;SDS011;23615;51.506;7.678;2023-03-19T00:05:57;1.02;;;0.85;;
37777;SDS011;23615;51.506;7.678;2023-03-19T00:08:22;0.97;;;0.70;;
37777;SDS011;23615;51.506;7.678;2023-03-19T00:10:48;1.30;;;0.80;;
37777;SDS011;23615;51.506;7.678;2023-03-19T00:13:14;1.43;;;1.03;;
37777;SDS011;23615;51.506;7.678;2023-03-19T00:15:40;1.13;;;1.02;;
37777;SDS011;23615;51.506;7.678;2023-03-19T00:18:05;1.02;;;0.80;;
37777;SDS011;23615;51.506;7.678;2023-03-19T00:20:31;0.93;;;0.80;;
37777;SDS011;23615;51.506;7.678;2023-03-19T00:22:57;1.00;;;0.90;;
37777;SDS011;23615;51.506;7.678;2023-03-19T00:25:22;0.97;;;0.77;;
37777;SDS011;23615;51.506;7.678;2023-03-19T00:27:48;1.20;;;0.70;;
37777;SDS011;23615;51.506;7.678;2023-03-19T00:30:13;0.90;;;0.90;;
37777;SDS011;23615;51.506;7.678;2023-03-19T00:32:39;1.47;;;0.90;;
37777;SDS011;23615;51.506;7.678;2023-03-19T00:35:04;1.27;;;0.60;;
37777;SDS011;23615;51.506;7.678;2023-03-19T00:37:30;0.70;;;0.65;;
37777;SDS011;23615;51.506;7.678;2023-03-19T00:39:56;0.70;;;0.60;;
37777;SDS011;23615;51.506;7.678;2023-03-19T00:42:22;1.23;;;0.70;;
37777;SDS011;23615;51.506;7.678;2023-03-19T00:44:47;1.83;;;0.80;;
37777;SDS011;23615;51.506;7.678;2023-03-19T00:47:12;1.23;;;0.90;;
37777;SDS011;23615;51.506;7.678;2023-03-19T00:49:37;1.70;;;1.00;;
37777;SDS011;23615;51.506;7.678;2023-03-19T00:52:03;0.93;;;0.60;;
37777;SDS011;23615;51.506;7.678;2023-03-19T00:54:28;1.80;;;1.53;;
37777;SDS011;23615;51.506;7.678;2023-03-19T00:56:53;2.47;;;1.33;;
37777;SDS011;23615;51.506;7.678;2023-03-19T00:59:18;1.80;;;1.00;;
37777;SDS011;23615;51.506;7.678;2023-03-19T01:01:44;1.33;;;0.90;;
37777;SDS011;23615;51.506;7.678;2023-03-19T01:04:09;1.25;;;0.80;;
37777;SDS011;23615;51.506;7.678;2023-03-19T01:06:35;1.50;;;1.00;;
37777;SDS011;23615;51.506;7.678;2023-03-19T01:09:00;1.70;;;0.83;;
37777;SDS011;23615;51.506;7.678;2023-03-19T01:11:26;1.10;;;0.60;;
37777;SDS011;23615;51.506;7.678;2023-03-19T01:13:51;1.37;;;0.97;;
37777;SDS011;23615;51.506;7.678;2023-03-19T01:16:16;0.50;;;0.50;;
37777;SDS011;23615;51.506;7.678;2023-03-19T01:18:42;1.15;;;0.50;;
37777;SDS011;23615;51.506;7.678;2023-03-19T01:21:07;0.80;;;0.60;;
37777;SDS011;23615;51.506;7.678;2023-03-19T01:23:32;0.80;;;0.60;;
37777;SDS011;23615;51.506;7.678;2023-03-19T01:25:58;0.87;;;0.80;;
37777;SDS011;23615;51.506;7.678;2023-03-19T01:28:23;1.20;;;0.73;;
37777;SDS011;23615;51.506;7.678;2023-03-19T01:30:49;1.10;;;0.90;;
37777;SDS011;23615;51.506;7.678;2023-03-19T01:33:14;0.87;;;0.77;;
37777;SDS011;23615;51.506;7.678;2023-03-19T01:35:40;1.70;;;1.00;;
37777;SDS011;23615;51.506;7.678;2023-03-19T01:38:07;1.77;;;0.68;;
37777;SDS011;23615;51.506;7.678;2023-03-19T01:40:32;0.60;;;0.60;;
37777;SDS011;23615;51.506;7.678;2023-03-19T01:43:15;1.70;;;0.88;;
37777;SDS011;23615;51.506;7.678;2023-03-19T01:45:49;0.82;;;0.60;;
37777;SDS011;23615;51.506;7.678;2023-03-19T01:48:26;1.58;;;0.80;;
37777;SDS011;23615;51.506;7.678;2023-03-19T01:51:02;0.98;;;0.80;;
37777;SDS011;23615;51.506;7.678;2023-03-19T01:53:30;0.90;;;0.70;;
37777;SDS011;23615;51.506;7.678;2023-03-19T01:56:31;1.08;;;0.70;;
37777;SDS011;23615;51.506;7.678;2023-03-19T01:58:56;2.20;;;1.08;;
37777;SDS011;23615;51.506;7.678;2023-03-19T02:01:26;1.00;;;0.90;;
37777;SDS011;23615;51.506;7.678;2023-03-19T02:03:53;1.75;;;1.25;;
37777;SDS011;23615;51.506;7.678;2023-03-19T02:06:19;1.08;;;0.90;;
37777;SDS011;23615;51.506;7.678;2023-03-19T02:08:46;1.38;;;1.00;;
37777;SDS011;23615;51.506;7.678;2023-03-19T02:11:13;1.10;;;1.00;;
37777;SDS011;23615;51.506;7.678;2023-03-19T02:13:39;1.70;;;1.00;;
37777;SDS011;23615;51.506;7.678;2023-03-19T02:16:05;2.93;;;1.13;;
37777;SDS011;23615;51.506;7.678;2023-03-19T02:18:31;1.67;;;1.58;;
37777;SDS011;23615;51.506;7.678;2023-03-19T02:21:02;1.37;;;1.20;;
37777;SDS011;23615;51.506;7.678;2023-03-19T02:23:47;1.83;;;1.27;;
37777;SDS011;23615;51.506;7.678;2023-03-19T02:26:24;1.05;;;0.80;;
37777;SDS011;23615;51.506;7.678;2023-03-19T02:28:52;1.88;;;1.08;;
37777;SDS011;23615;51.506;7.678;2023-03-19T02:31:18;1.40;;;1.10;;
37777;SDS011;23615;51.506;7.678;2023-03-19T02:33:55;1.00;;;0.90;;
37777;SDS011;23615;51.506;7.678;2023-03-19T02:36:25;0.90;;;0.85;;
37777;SDS011;23615;51.506;7.678;2023-03-19T02:38:59;1.90;;;0.90;;
37777;SDS011;23615;51.506;7.678;2023-03-19T02:41:28;1.25;;;0.90;;
37777;SDS011;23615;51.506;7.678;2023-03-19T02:43:55;1.50;;;0.98;;
37777;SDS011;23615;51.506;7.678;2023-03-19T02:46:23;1.55;;;0.90;;
37777;SDS011;23615;51.506;7.678;2023-03-19T02:48:49;1.30;;;1.00;;
37777;SDS011;23615;51.506;7.678;2023-03-19T02:51:14;1.50;;;0.97;;
37777;SDS011;23615;51.506;7.678;2023-03-19T02:53:39;1.33;;;1.10;;
37777;SDS011;23615;51.506;7.678;2023-03-19T02:56:05;0.93;;;0.70;;
37777;SDS011;23615;51.506;7.678;2023-03-19T02:58:30;0.75;;;0.52;;
37777;SDS011;23615;51.506;7.678;2023-03-19T03:00:56;0.90;;;0.90;;
37777;SDS011;23615;51.506;7.678;2023-03-19T03:03:21;1.40;;;0.70;;
37777;SDS011;23615;51.506;7.678;2023-03-19T03:05:46;1.03;;;0.70;;
37777;SDS011;23615;51.506;7.678;2023-03-19T03:08:12;1.10;;;0.53;;
37777;SDS011;23615;51.506;7.678;2023-03-19T03:10:37;1.10;;;0.80;;
37777;SDS011;23615;51.506;7.678;2023-03-19T03:13:02;0.80;;;0.60;;
37777;SDS011;23615;51.506;7.678;2023-03-19T03:15:29;0.80;;;0.52;;
37777;SDS011;23615;51.506;7.678;2023-03-19T03:17:54;0.97;;;0.90;;
37777;SDS011;23615;51.506;7.678;2023-03-19T03:20:20;1.88;;;0.80;;
37777;SDS011;23615;51.506;7.678;2023-03-19T03:22:46;1.33;;;0.70;;
37777;SDS011;23615;51.506;7.678;2023-03-19T03:25:12;0.70;;;0.50;;
37777;SDS011;23615;51.506;7.678;2023-03-19T03:27:38;1.40;;;0.47;;
37777;SDS011;23615;51.506;7.678;2023-03-19T03:30:04;0.90;;;0.40;;
37777;SDS011;23615;51.506;7.678;2023-03-19T03:32:32;1.00;;;0.50;;
37777;SDS011;23615;51.506;7.678;2023-03-19T03:34:58;0.90;;;0.40;;
37777;SDS011;23615;51.506;7.678;2023-03-19T03:37:23;0.90;;;0.60;;
37777;SDS011;23615;51.506;7.678;2023-03-19T03:39:48;0.57;;;0.40;;
37777;SDS011;23615;51.506;7.678;2023-03-19T03:42:13;0.73;;;0.50;;
37777;SDS011;23615;51.506;7.678;2023-03-19T03:44:39;0.90;;;0.50;;
37777;SDS011;23615;51.506;7.678;2023-03-19T03:47:04;0.50;;;0.40;;
37777;SDS011;23615;51.506;7.678;2023-03-19T03:49:30;0.83;;;0.60;;
37777;SDS011;23615;51.506;7.678;2023-03-19T03:51:56;0.70;;;0.50;;
37777;SDS011;23615;51.506;7.678;2023-03-19T03:54:21;1.53;;;0.60;;
37777;SDS011;23615;51.506;7.678;2023-03-19T03:56:46;0.90;;;0.70;;
37777;SDS011;23615;51.506;7.678;2023-03-19T03:59:14;0.50;;;0.50;;
37777;SDS011;23615;51.506;7.678;2023-03-19T04:01:39;1.00;;;0.47;;
37777;SDS011;23615;51.506;7.678;2023-03-19T04:04:04;0.43;;;0.40;;
37777;SDS011;23615;51.506;7.678;2023-03-19T04:06:29;0.73;;;0.50;;
37777;SDS011;23615;51.506;7.678;2023-03-19T04:08:55;0.90;;;0.57;;
37777;SDS011;23615;51.506;7.678;2023-03-19T04:11:20;1.00;;;0.53;;
37777;SDS011;23615;51.506;7.678;2023-03-19T04:13:45;1.50;;;0.67;;
37777;SDS011;23615;51.506;7.678;2023-03-19T04:16:11;1.20;;;0.50;;
37777;SDS011;23615;51.506;7.678;2023-03-19T04:18:36;1.60;;;0.50;;
37777;SDS011;23615;51.506;7.678;2023-03-19T04:21:05;0.63;;;0.60;;
37777;SDS011;23615;51.506;7.678;2023-03-19T04:23:31;1.55;;;0.60;;
37777;SDS011;23615;51.506;7.678;2023-03-19T04:25:57;1.17;;;0.30;;
37777;SDS011;23615;51.506;7.678;2023-03-19T04:28:24;0.40;;;0.38;;
37777;SDS011;23615;51.506;7.678;2023-03-19T04:30:49;0.60;;;0.37;;
37777;SDS011;23615;51.506;7.678;2023-03-19T04:33:15;0.60;;;0.40;;
37777;SDS011;23615;51.506;7.678;2023-03-19T04:35:41;0.87;;;0.50;;
37777;SDS011;23615;51.506;7.678;2023-03-19T04:38:06;0.40;;;0.30;;
37777;SDS011;23615;51.506;7.678;2023-03-19T04:40:32;0.60;;;0.30;;
37777;SDS011;23615;51.506;7.678;2023-03-19T04:42:57;0.40;;;0.30;;
37777;SDS011;23615;51.506;7.678;2023-03-19T04:45:22;0.53;;;0.40;;
37777;SDS011;23615;51.506;7.678;2023-03-19T04:47:47;0.50;;;0.40;;
37777;SDS011;23615;51.506;7.678;2023-03-19T04:50:13;0.57;;;0.32;;
37777;SDS011;23615;51.506;7.678;2023-03-19T04:52:39;0.83;;;0.30;;
37777;SDS011;23615;51.506;7.678;2023-03-19T04:55:05;0.60;;;0.30;;
37777;SDS011;23615;51.506;7.678;2023-03-19T04:57:32;0.70;;;0.40;;
37777;SDS011;23615;51.506;7.678;2023-03-19T04:59:57;0.47;;;0.30;;
37777;SDS011;23615;51.506;7.678;2023-03-19T05:02:23;1.95;;;0.50;;
37777;SDS011;23615;51.506;7.678;2023-03-19T05:04:50;0.43;;;0.40;;
37777;SDS011;23615;51.506;7.678;2023-03-19T05:07:15;0.50;;;0.50;;
37777;SDS011;23615;51.506;7.678;2023-03-19T05:09:40;1.10;;;0.80;;
37777;SDS011;23615;51.506;7.678;2023-03-19T05:12:08;0.60;;;0.40;;
37777;SDS011;23615;51.506;7.678;2023-03-19T05:14:34;1.30;;;0.40;;
37777;SDS011;23615;51.506;7.678;2023-03-19T05:16:59;1.03;;;0.50;;
37777;SDS011;23615;51.506;7.678;2023-03-19T05:19:24;0.67;;;0.40;;
37777;SDS011;23615;51.506;7.678;2023-03-19T05:21:50;0.77;;;0.40;;
37777;SDS011;23615;51.506;7.678;2023-03-19T05:24:15;0.40;;;0.30;;
37777;SDS011;23615;51.506;7.678;2023-03-19T05:26:40;0.70;;;0.50;;
37777;SDS011;23615;51.506;7.678;2023-03-19T05:29:06;0.77;;;0.57;;
37777;SDS011;23615;51.506;7.678;2023-03-19T05:31:34;2.60;;;0.87;;
37777;SDS011;23615;51.506;7.678;2023-03-19T05:34:00;1.60;;;0.80;;
37777;SDS011;23615;51.506;7.678;2023-03-19T05:36:25;3.03;;;0.97;;
37777;SDS011;23615;51.506;7.678;2023-03-19T05:38:52;3.50;;;1.02;;
37777;SDS011;23615;51.506;7.678;2023-03-19T05:41:17;2.03;;;0.90;;
37777;SDS011;23615;51.506;7.678;2023-03-19T05:43:42;1.93;;;1.13;;
37777;SDS011;23615;51.506;7.678;2023-03-19T05:46:07;2.10;;;0.90;;
37777;SDS011;23615;51.506;7.678;2023-03-19T05:48:33;5.37;;;1.57;;
37777;SDS011;23615;51.506;7.678;2023-03-19T05:50:58;2.88;;;1.25;;
37777;SDS011;23615;51.506;7.678;2023-03-19T05:53:23;2.97;;;1.10;;
37777;SDS011;23615;51.506;7.678;2023-03-19T05:55:49;2.43;;;1.20;;
37777;SDS011;23615;51.506;7.678;2023-03-19T05:58:14;1.27;;;0.90;;
37777;SDS011;23615;51.506;7.678;2023-03-19T06:00:41;1.90;;;0.88;;
37777;SDS011;23615;51.506;7.678;2023-03-19T06:03:06;2.17;;;0.88;;
37777;SDS011;23615;51.506;7.678;2023-03-19T06:05:32;1.65;;;0.80;;
37777;SDS011;23615;51.506;7.678;2023-03-19T06:07:57;1.85;;;0.75;;
37777;SDS011;23615;51.506;7.678;2023-03-19T06:10:22;3.70;;;0.73;;
37777;SDS011;23615;51.506;7.678;2023-03-19T06:12:48;2.60;;;0.93;;
37777;SDS011;23615;51.506;7.678;2023-03-19T06:15:13;2.50;;;1.07;;
37777;SDS011;23615;51.506;7.678;2023-03-19T06:17:38;1.73;;;0.60;;
37777;SDS011;23615;51.506;7.678;2023-03-19T06:20:04;1.13;;;1.00;;
37777;SDS011;23615;51.506;7.678;2023-03-19T06:22:29;2.00;;;0.90;;
37777;SDS011;23615;51.506;7.678;2023-03-19T06:24:54;0.77;;;0.53;;
37777;SDS011;23615;51.506;7.678;2023-03-19T06:27:20;1.47;;;0.80;;
37777;SDS011;23615;51.506;7.678;2023-03-19T06:29:45;1.30;;;0.67;;
37777;SDS011;23615;51.506;7.678;2023-03-19T06:32:10;2.00;;;0.90;;
37777;SDS011;23615;51.506;7.678;2023-03-19T06:34:36;1.13;;;0.60;;
37777;SDS011;23615;51.506;7.678;2023-03-19T06:37:02;1.13;;;0.60;;
37777;SDS011;23615;51.506;7.678;2023-03-19T06:39:27;1.40;;;0.70;;
37777;SDS011;23615;51.506;7.678;2023-03-19T06:41:52;2.07;;;0.60;;
37777;SDS011;23615;51.506;7.678;2023-03-19T06:44:18;1.63;;;0.60;;
37777;SDS011;23615;51.506;7.678;2023-03-19T06:46:43;0.93;;;0.60;;
37777;SDS011;23615;51.506;7.678;2023-03-19T06:49:09;1.73;;;0.70;;
37777;SDS011;23615;51.506;7.678;2023-03-19T06:51:34;1.67;;;0.60;;
37777;SDS011;23615;51.506;7.678;2023-03-19T06:54:00;1.63;;;0.50;;
37777;SDS011;23615;51.506;7.678;2023-03-19T06:56:25;1.25;;;0.47;;
37777;SDS011;23615;51.506;7.678;2023-03-19T06:58:51;1.98;;;0.80;;
37777;SDS011;23615;51.506;7.678;2023-03-19T07:01:16;2.07;;;0.80;;
37777;SDS011;23615;51.506;7.678;2023-03-19T07:03:41;1.88;;;0.52;;
37777;SDS011;23615;51.506;7.678;2023-03-19T07:06:07;1.90;;;1.10;;
37777;SDS011;23615;51.506;7.678;2023-03-19T07:08:32;1.70;;;0.50;;
37777;SDS011;23615;51.506;7.678;2023-03-19T07:11:04;1.13;;;0.53;;
37777;SDS011;23615;51.506;7.678;2023-03-19T07:13:31;1.35;;;0.55;;
37777;SDS011;23615;51.506;7.678;2023-03-19T07:15:57;2.33;;;0.70;;
37777;SDS011;23615;51.506;7.678;2023-03-19T07:18:23;2.10;;;0.68;;
37777;SDS011;23615;51.506;7.678;2023-03-19T07:20:49;2.97;;;1.00;;
37777;SDS011;23615;51.506;7.678;2023-03-19T07:23:14;1.90;;;0.80;;
37777;SDS011;23615;51.506;7.678;2023-03-19T07:25:40;1.63;;;0.67;;
37777;SDS011;23615;51.506;7.678;2023-03-19T07:28:05;1.70;;;0.70;;
37777;SDS011;23615;51.506;7.678;2023-03-19T07:30:31;1.50;;;0.60;;
37777;SDS011;23615;51.506;7.678;2023-03-19T07:32:56;0.87;;;0.50;;
37777;SDS011;23615;51.506;7.678;2023-03-19T07:35:22;0.60;;;0.50;;
37777;SDS011;23615;51.506;7.678;2023-03-19T07:37:47;1.60;;;0.73;;
37777;SDS011;23615;51.506;7.678;2023-03-19T07:40:13;2.00;;;0.50;;
37777;SDS011;23615;51.506;7.678;2023-03-19T07:42:38;0.93;;;0.47;;
37777;SDS011;23615;51.506;7.678;2023-03-19T07:45:04;1.87;;;1.30;;
37777;SDS011;23615;51.506;7.678;2023-03-19T07:47:30;2.25;;;0.93;;
37777;SDS011;23615;51.506;7.678;2023-03-19T07:49:56;2.58;;;0.70;;
37777;SDS011;23615;51.506;7.678;2023-03-19T07:52:22;1.67;;;0.70;;
37777;SDS011;23615;51.506;7.678;2023-03-19T07:54:48;1.00;;;0.63;;
37777;SDS011;23615;51.506;7.678;2023-03-19T07:57:14;1.50;;;0.77;;
37777;SDS011;23615;51.506;7.678;2023-03-19T07:59:40;1.25;;;0.50;;
37777;SDS011;23615;51.506;7.678;2023-03-19T08:02:05;1.33;;;0.55;;
37777;SDS011;23615;51.506;7.678;2023-03-19T08:04:31;2.30;;;0.80;;
37777;SDS011;23615;51.506;7.678;2023-03-19T08:06:56;1.90;;;0.60;;
37777;SDS011;23615;51.506;7.678;2023-03-19T08:09:22;0.93;;;0.70;;
37777;SDS011;23615;51.506;7.678;2023-03-19T08:11:47;1.10;;;0.80;;
37777;SDS011;23615;51.506;7.678;2023-03-19T08:14:12;2.60;;;0.60;;
37777;SDS011;23615;51.506;7.678;2023-03-19T08:16:37;1.90;;;1.20;;
37777;SDS011;23615;51.506;7.678;2023-03-19T08:19:03;1.80;;;1.13;;
37777;SDS011;23615;51.506;7.678;2023-03-19T08:21:28;3.10;;;1.40;;
37777;SDS011;23615;51.506;7.678;2023-03-19T08:23:53;2.43;;;1.20;;
37777;SDS011;23615;51.506;7.678;2023-03-19T08:26:19;3.07;;;1.93;;
37777;SDS011;23615;51.506;7.678;2023-03-19T08:28:44;2.47;;;1.63;;
37777;SDS011;23615;51.506;7.678;2023-03-19T08:31:10;2.27;;;2.07;;
37777;SDS011;23615;51.506;7.678;2023-03-19T08:33:37;2.85;;;2.38;;
37777;SDS011;23615;51.506;7.678;2023-03-19T08:36:04;3.28;;;1.95;;
37777;SDS011;23615;51.506;7.678;2023-03-19T08:38:31;3.00;;;2.17;;
37777;SDS011;23615;51.506;7.678;2023-03-19T08:40:56;2.70;;;2.47;;
37777;SDS011;23615;51.506;7.678;2023-03-19T08:43:26;3.45;;;2.20;;
37777;SDS011;23615;51.506;7.678;2023-03-19T08:45:51;2.47;;;2.25;;
37777;SDS011;23615;51.506;7.678;2023-03-19T08:48:17;2.87;;;2.37;;
37777;SDS011;23615;51.506;7.678;2023-03-19T08:50:42;2.87;;;2.17;;
37777;SDS011;23615;51.506;7.678;2023-03-19T08:53:07;2.30;;;2.10;;
37777;SDS011;23615;51.506;7.678;2023-03-19T08:55:32;3.00;;;2.17;;
37777;SDS011;23615;51.506;7.678;2023-03-19T08:57:58;3.23;;;2.83;;
37777;SDS011;23615;51.506;7.678;2023-03-19T09:00:23;2.88;;;2.25;;
37777;SDS011;23615;51.506;7.678;2023-03-19T09:02:48;2.80;;;2.33;;
37777;SDS011;23615;51.506;7.678;2023-03-19T09:05:14;3.10;;;2.90;;
37777;SDS011;23615;51.506;7.678;2023-03-19T09:07:39;2.33;;;1.80;;
37777;SDS011;23615;51.506;7.678;2023-03-19T09:10:04;1.93;;;1.73;;
37777;SDS011;23615;51.506;7.678;2023-03-19T09:12:30;1.50;;;1.20;;
37777;SDS011;23615;51.506;7.678;2023-03-19T09:14:56;1.98;;;0.90;;
37777;SDS011;23615;51.506;7.678;2023-03-19T09:17:22;1.10;;;0.77;;
37777;SDS011;23615;51.506;7.678;2023-03-19T09:19:47;1.40;;;0.73;;
37777;SDS011;23615;51.506;7.678;2023-03-19T09:22:12;5.85;;;0.90;;
37777;SDS011;23615;51.506;7.678;2023-03-19T09:24:38;1.10;;;0.60;;
37777;SDS011;23615;51.506;7.678;2023-03-19T09:27:03;0.90;;;0.50;;
37777;SDS011;23615;51.506;7.678;2023-03-19T09:29:28;1.00;;;0.60;;
37777;SDS011;23615;51.506;7.678;2023-03-19T09:31:53;4.43;;;0.80;;
37777;SDS011;23615;51.506;7.678;2023-03-19T09:34:19;0.60;;;0.50;;
37777;SDS011;23615;51.506;7.678;2023-03-19T09:36:45;0.87;;;0.40;;
37777;SDS011;23615;51.506;7.678;2023-03-19T09:39:10;0.60;;;0.43;;
37777;SDS011;23615;51.506;7.678;2023-03-19T09:44:34;1.25;;;0.70;;
37777;SDS011;23615;51.506;7.678;2023-03-19T09:49:58;0.77;;;0.60;;
37777;SDS011;23615;51.506;7.678;2023-03-19T09:57:52;3.10;;;1.17;;
37777;SDS011;23615;51.506;7.678;2023-03-19T10:00:20;2.70;;;2.03;;
37777;SDS011;23615;51.506;7.678;2023-03-19T10:02:53;2.60;;;1.92;;
37777;SDS011;23615;51.506;7.678;2023-03-19T10:05:38;4.20;;;3.05;;
37777;SDS011;23615;51.506;7.678;2023-03-19T10:16:29;3.97;;;3.10;;
37777;SDS011;23615;51.506;7.678;2023-03-19T10:18:57;4.07;;;3.00;;
37777;SDS011;23615;51.506;7.678;2023-03-19T10:21:41;3.23;;;2.67;;
37777;SDS011;23615;51.506;7.678;2023-03-19T10:24:22;2.40;;;2.20;;
37777;SDS011;23615;51.506;7.678;2023-03-19T10:26:59;4.15;;;2.92;;
37777;SDS011;23615;51.506;7.678;2023-03-19T10:29:27;3.95;;;3.28;;
37777;SDS011;23615;51.506;7.678;2023-03-19T10:34:32;3.78;;;3.08;;
37777;SDS011;23615;51.506;7.678;2023-03-19T10:37:33;3.40;;;3.08;;
37777;SDS011;23615;51.506;7.678;2023-03-19T10:39:56;3.42;;;3.13;;
37777;SDS011;23615;51.506;7.678;2023-03-19T10:45:26;4.63;;;3.40;;
37777;SDS011;23615;51.506;7.678;2023-03-19T10:47:57;4.32;;;3.90;;
37777;SDS011;23615;51.506;7.678;2023-03-19T10:50:29;6.47;;;5.28;;
37777;SDS011;23615;51.506;7.678;2023-03-19T10:53:40;4.38;;;3.50;;
37777;SDS011;23615;51.506;7.678;2023-03-19T10:59:04;3.63;;;3.33;;
37777;SDS011;23615;51.506;7.678;2023-03-19T11:01:32;5.25;;;4.03;;
37777;SDS011;23615;51.506;7.678;2023-03-19T11:04:21;3.58;;;3.25;;
37777;SDS011;23615;51.506;7.678;2023-03-19T11:06:48;4.32;;;3.92;;
37777;SDS011;23615;51.506;7.678;2023-03-19T11:09:40;3.38;;;3.08;;
37777;SDS011;23615;51.506;7.678;2023-03-19T11:14:57;3.50;;;3.10;;
37777;SDS011;23615;51.506;7.678;2023-03-19T11:17:37;4.07;;;2.90;;
37777;SDS011;23615;51.506;7.678;2023-03-19T11:23:06;3.42;;;3.08;;
37777;SDS011;23615;51.506;7.678;2023-03-19T11:25:38;4.38;;;3.45;;
37777;SDS011;23615;51.506;7.678;2023-03-19T11:30:36;4.20;;;2.97;;
37777;SDS011;23615;51.506;7.678;2023-03-19T11:33:15;4.38;;;2.85;;
37777;SDS011;23615;51.506;7.678;2023-03-19T11:36:00;3.85;;;2.97;;
37777;SDS011;23615;51.506;7.678;2023-03-19T11:50:12;2.43;;;2.10;;
37777;SDS011;23615;51.506;7.678;2023-03-19T11:55:33;2.20;;;1.67;;
37777;SDS011;23615;51.506;7.678;2023-03-19T12:00:38;1.50;;;1.23;;
37777;SDS011;23615;51.506;7.678;2023-03-19T12:03:25;1.88;;;1.20;;
37777;SDS011;23615;51.506;7.678;2023-03-19T12:06:23;2.00;;;0.77;;
37777;SDS011;23615;51.506;7.678;2023-03-19T12:09:07;1.17;;;0.70;;
37777;SDS011;23615;51.506;7.678;2023-03-19T12:11:57;0.80;;;0.50;;
37777;SDS011;23615;51.506;7.678;2023-03-19T12:14:52;0.93;;;0.38;;
37777;SDS011;23615;51.506;7.678;2023-03-19T12:20:31;0.45;;;0.35;;
37777;SDS011;23615;51.506;7.678;2023-03-19T12:25:42;0.40;;;0.40;;
37777;SDS011;23615;51.506;7.678;2023-03-19T12:30:48;0.40;;;0.40;;
37777;SDS011;23615;51.506;7.678;2023-03-19T12:33:27;0.40;;;0.30;;
37777;SDS011;23615;51.506;7.678;2023-03-19T12:36:19;0.30;;;0.30;;
37777;SDS011;23615;51.506;7.678;2023-03-19T12:38:52;1.20;;;0.40;;
37777;SDS011;23615;51.506;7.678;2023-03-19T12:41:25;0.60;;;0.30;;
37777;SDS011;23615;51.506;7.678;2023-03-19T12:43:59;0.88;;;0.40;;
37777;SDS011;23615;51.506;7.678;2023-03-19T12:51:50;0.55;;;0.50;;
37777;SDS011;23615;51.506;7.678;2023-03-19T12:54:29;0.40;;;0.30;;
37777;SDS011;23615;51.506;7.678;2023-03-19T12:57:06;1.35;;;0.30;;
37777;SDS011;23615;51.506;7.678;2023-03-19T13:02:29;0.60;;;0.30;;
37777;SDS011;23615;51.506;7.678;2023-03-19T13:05:10;0.43;;;0.43;;
37777;SDS011;23615;51.506;7.678;2023-03-19T13:10:51;0.63;;;0.20;;
37777;SDS011;23615;51.506;7.678;2023-03-19T13:19:09;0.30;;;0.30;;
37777;SDS011;23615;51.506;7.678;2023-03-19T13:21:49;0.70;;;0.30;;
37777;SDS011;23615;51.506;7.678;2023-03-19T13:24:29;1.23;;;1.23;;
37777;SDS011;23615;51.506;7.678;2023-03-19T13:26:58;1.60;;;1.40;;
37777;SDS011;23615;51.506;7.678;2023-03-19T13:29:29;1.50;;;1.50;;
37777;SDS011;23615;51.506;7.678;2023-03-19T13:31:59;1.60;;;1.40;;
37777;SDS011;23615;51.506;7.678;2023-03-19T13:34:45;0.60;;;0.60;;
37777;SDS011;23615;51.506;7.678;2023-03-19T13:37:12;0.70;;;0.70;;
37777;SDS011;23615;51.506;7.678;2023-03-19T13:39:40;0.60;;;0.30;;
37777;SDS011;23615;51.506;7.678;2023-03-19T13:42:33;0.50;;;0.20;;
37777;SDS011;23615;51.506;7.678;2023-03-19T13:47:59;0.30;;;0.30;;
37777;SDS011;23615;51.506;7.678;2023-03-19T13:53:54;1.13;;;1.02;;
37777;SDS011;23615;51.506;7.678;2023-03-19T13:56:28;1.63;;;1.05;;
37777;SDS011;23615;51.506;7.678;2023-03-19T14:01:55;1.60;;;1.30;;
37777;SDS011;23615;51.506;7.678;2023-03-19T14:06:55;1.20;;;1.10;;
37777;SDS011;23615;51.506;7.678;2023-03-19T14:09:41;1.67;;;1.55;;
37777;SDS011;23615;51.506;7.678;2023-03-19T14:14:41;1.08;;;0.98;;
37777;SDS011;23615;51.506;7.678;2023-03-19T14:17:13;1.65;;;1.40;;
37777;SDS011;23615;51.506;7.678;2023-03-19T14:19:42;1.63;;;1.52;;
37777;SDS011;23615;51.506;7.678;2023-03-19T14:22:13;1.37;;;1.20;;
37777;SDS011;23615;51.506;7.678;2023-03-19T14:24:54;1.40;;;1.30;;
37777;SDS011;23615;51.506;7.678;2023-03-19T14:27:32;1.98;;;1.88;;
37777;SDS011;23615;51.506;7.678;2023-03-19T14:30:01;2.10;;;2.00;;
37777;SDS011;23615;51.506;7.678;2023-03-19T14:32:34;2.50;;;2.15;;
37777;SDS011;23615;51.506;7.678;2023-03-19T14:35:06;2.38;;;2.17;;
37777;SDS011;23615;51.506;7.678;2023-03-19T14:42:55;3.20;;;3.00;;
37777;SDS011;23615;51.506;7.678;2023-03-19T14:45:38;2.75;;;2.55;;
37777;SDS011;23615;51.506;7.678;2023-03-19T14:51:42;3.50;;;3.20;;
37777;SDS011;23615;51.506;7.678;2023-03-19T14:54:51;3.47;;;3.20;;
37777;SDS011;23615;51.506;7.678;2023-03-19T14:59:45;3.55;;;3.25;;
37777;SDS011;23615;51.506;7.678;2023-03-19T15:02:29;3.55;;;3.05;;
37777;SDS011;23615;51.506;7.678;2023-03-19T15:05:18;2.90;;;2.70;;
37777;SDS011;23615;51.506;7.678;2023-03-19T15:07:46;1.70;;;1.60;;
37777;SDS011;23615;51.506;7.678;2023-03-19T15:10:14;2.08;;;1.90;;
37777;SDS011;23615;51.506;7.678;2023-03-19T15:18:06;1.58;;;1.30;;
37777;SDS011;23615;51.506;7.678;2023-03-19T15:20:43;0.85;;;0.85;;
37777;SDS011;23615;51.506;7.678;2023-03-19T15:23:11;1.48;;;1.20;;
37777;SDS011;23615;51.506;7.678;2023-03-19T15:25:48;1.35;;;1.27;;
37777;SDS011;23615;51.506;7.678;2023-03-19T15:28:16;1.52;;;1.42;;
37777;SDS011;23615;51.506;7.678;2023-03-19T15:30:44;1.73;;;1.63;;
37777;SDS011;23615;51.506;7.678;2023-03-19T15:33:20;1.92;;;1.58;;
37777;SDS011;23615;51.506;7.678;2023-03-19T15:35:57;1.92;;;1.83;;
37777;SDS011;23615;51.506;7.678;2023-03-19T15:38:28;2.47;;;2.17;;
37777;SDS011;23615;51.506;7.678;2023-03-19T15:41:04;2.35;;;2.15;;
37777;SDS011;23615;51.506;7.678;2023-03-19T15:43:32;4.07;;;2.65;;
37777;SDS011;23615;51.506;7.678;2023-03-19T15:46:00;3.33;;;2.85;;
37777;SDS011;23615;51.506;7.678;2023-03-19T15:48:40;2.77;;;2.57;;
37777;SDS011;23615;51.506;7.678;2023-03-19T15:51:21;3.30;;;3.00;;
37777;SDS011;23615;51.506;7.678;2023-03-19T15:53:49;2.55;;;2.40;;
37777;SDS011;23615;51.506;7.678;2023-03-19T15:56:15;3.07;;;2.87;;
37777;SDS011;23615;51.506;7.678;2023-03-19T15:58:46;3.43;;;3.13;;
37777;SDS011;23615;51.506;7.678;2023-03-19T16:01:14;4.95;;;3.10;;
37777;SDS011;23615;51.506;7.678;2023-03-19T16:03:53;3.63;;;2.85;;
37777;SDS011;23615;51.506;7.678;2023-03-19T16:06:29;3.42;;;3.13;;
37777;SDS011;23615;51.506;7.678;2023-03-19T16:11:54;3.35;;;3.05;;
37777;SDS011;23615;51.506;7.678;2023-03-19T16:14:39;3.75;;;3.45;;
37777;SDS011;23615;51.506;7.678;2023-03-19T16:17:13;4.18;;;3.78;;
37777;SDS011;23615;51.506;7.678;2023-03-19T16:22:23;3.88;;;3.58;;
37777;SDS011;23615;51.506;7.678;2023-03-19T16:24:52;4.30;;;3.90;;
37777;SDS011;23615;51.506;7.678;2023-03-19T16:27:31;4.07;;;3.78;;
37777;SDS011;23615;51.506;7.678;2023-03-19T16:29:59;4.75;;;4.35;;
37777;SDS011;23615;51.506;7.678;2023-03-19T16:32:25;3.77;;;3.47;;
37777;SDS011;23615;51.506;7.678;2023-03-19T16:37:24;4.90;;;4.35;;
37777;SDS011;23615;51.506;7.678;2023-03-19T16:39:57;3.20;;;2.92;;
37777;SDS011;23615;51.506;7.678;2023-03-19T16:42:28;3.90;;;3.50;;
37777;SDS011;23615;51.506;7.678;2023-03-19T16:47:43;3.27;;;2.97;;
37777;SDS011;23615;51.506;7.678;2023-03-19T16:50:11;3.67;;;3.38;;
37777;SDS011;23615;51.506;7.678;2023-03-19T16:52:37;3.53;;;3.22;;
37777;SDS011;23615;51.506;7.678;2023-03-19T16:55:04;4.05;;;3.75;;
37777;SDS011;23615;51.506;7.678;2023-03-19T16:57:46;3.53;;;3.22;;
37777;SDS011;23615;51.506;7.678;2023-03-19T17:00:18;3.10;;;2.80;;